createdAt,value
2019-04-14T00:16:11.831Z,102646.77
2019-04-14T00:18:40.693Z,102653.32
2019-04-14T00:21:10.785Z,102647.27
2019-04-14T00:23:41.173Z,102648.10
2019-04-14T00:26:31.548Z,102640.75
2019-04-14T00:29:00.884Z,102638.57
2019-04-14T00:31:30.740Z,102640.73
2019-04-14T00:34:02.898Z,102632.92
2019-04-14T00:36:52.310Z,102633.79
2019-04-14T00:39:27.661Z,102631.65
2019-04-14T00:42:16.884Z,102634.66
2019-04-14T00:44:49.574Z,102625.98
2019-04-14T00:47:24.718Z,102625.98
2019-04-14T00:49:53.673Z,102621.63
2019-04-14T00:52:23.411Z,102631.62
2019-04-14T00:54:52.418Z,102632.94
2019-04-14T00:57:22.393Z,102637.27
2019-04-14T00:59:52.997Z,102635.52
2019-04-14T01:02:23.219Z,102636.42
2019-04-14T01:04:53.439Z,102629.91
2019-04-14T01:07:24.028Z,102633.78
2019-04-14T01:09:53.212Z,102633.34
2019-04-14T01:12:23.426Z,102630.72
2019-04-14T01:14:53.767Z,102629.80
2019-04-14T01:17:24.373Z,102632.87
2019-04-14T01:19:53.330Z,102632.82
2019-04-14T01:22:22.788Z,102634.55
2019-04-14T01:24:53.179Z,102642.37
2019-04-14T01:27:23.563Z,102642.31
2019-04-14T01:29:54.502Z,102635.80
2019-04-14T01:32:24.064Z,102637.90
2019-04-14T01:34:55.235Z,102630.99
2019-04-14T01:37:24.769Z,102632.69
2019-04-14T01:39:54.600Z,102627.92
2019-04-14T01:42:24.567Z,102634.00
2019-04-14T01:44:54.538Z,102638.65
2019-04-14T01:47:24.670Z,102639.08
2019-04-14T01:49:53.796Z,102638.69
2019-04-14T01:52:54.417Z,102639.59
2019-04-14T01:55:46.251Z,102642.16
2019-04-14T01:58:25.150Z,102639.52
2019-04-14T02:01:10.543Z,102641.20
2019-04-14T02:03:40.887Z,102646.84
2019-04-14T02:06:13.656Z,102650.31
2019-04-14T02:08:43.677Z,102645.58
2019-04-14T02:11:13.696Z,102649.11
2019-04-14T02:13:42.750Z,102658.60
2019-04-14T02:16:22.973Z,102656.08
2019-04-14T02:18:42.740Z,102650.84
2019-04-14T02:21:12.819Z,102651.70
2019-04-14T02:23:43.222Z,102643.42
2019-04-14T02:26:13.232Z,102643.84
2019-04-14T02:28:42.212Z,102642.50
2019-04-14T02:31:24.793Z,102647.27
2019-04-14T02:34:08.194Z,102651.22
2019-04-14T02:36:42.910Z,102651.66
2019-04-14T02:39:16.989Z,102651.22
2019-04-14T02:41:47.309Z,102645.14
2019-04-14T02:46:47.893Z,102644.66
2019-04-14T02:49:12.421Z,102649.45
2019-04-14T02:51:40.111Z,102647.27
2019-04-14T02:54:14.272Z,102657.34
2019-04-14T02:56:43.372Z,102653.87
2019-04-14T02:59:11.285Z,102652.61
2019-04-14T03:01:59.520Z,102662.20
2019-04-14T03:06:50.419Z,102653.59
2019-04-14T03:11:48.885Z,102666.62
2019-04-14T03:14:27.746Z,102654.50
2019-04-14T03:17:25.368Z,102652.82
2019-04-14T03:20:11.268Z,102658.90
2019-04-14T03:22:40.573Z,102661.53
2019-04-14T03:25:17.100Z,102651.52
2019-04-14T03:28:06.851Z,102654.16
2019-04-14T03:36:06.411Z,102656.43
2019-04-14T03:43:13.668Z,102657.71
2019-04-14T03:45:43.252Z,102653.37
2019-04-14T03:48:42.828Z,102653.36
2019-04-14T03:50:36.901Z,102654.66
2019-04-14T03:55:58.821Z,102651.20
2019-04-14T03:58:22.621Z,102655.12
2019-04-14T04:00:51.644Z,102662.05
2019-04-14T04:03:21.803Z,102655.55
2019-04-14T04:05:52.071Z,102661.61
2019-04-14T04:08:22.255Z,102635.55
2019-04-14T04:10:53.162Z,102661.63
2019-04-14T04:13:22.197Z,102664.68
2019-04-14T04:15:51.976Z,102663.34
2019-04-14T04:18:24.145Z,102666.84
2019-04-14T04:21:00.924Z,102662.52
2019-04-14T04:23:53.284Z,102663.78
2019-04-14T04:26:36.493Z,102665.12
2019-04-14T04:29:09.689Z,102660.33
2019-04-14T04:32:01.394Z,102667.28
2019-04-14T04:34:40.171Z,102669.42
2019-04-14T04:37:17.226Z,102661.59
2019-04-14T04:39:47.573Z,102649.89
2019-04-14T04:42:17.682Z,102676.41
2019-04-14T04:44:46.670Z,102671.19
2019-04-14T04:47:16.584Z,102671.20
2019-04-14T04:49:46.891Z,102675.09
2019-04-14T04:52:17.199Z,102672.06
2019-04-14T04:54:47.429Z,102678.16
2019-04-14T04:57:17.821Z,102677.69
2019-04-14T04:59:47.430Z,102682.50
2019-04-14T05:02:17.617Z,102682.93
2019-04-14T05:04:46.578Z,102680.33
2019-04-14T05:07:16.692Z,102675.53
2019-04-14T05:10:08.854Z,102679.86
2019-04-14T05:12:54.447Z,102684.23
2019-04-14T05:15:45.049Z,102683.36
2019-04-14T05:18:24.691Z,102679.47
2019-04-14T05:20:55.240Z,102683.38
2019-04-14T05:23:25.628Z,102685.95
2019-04-14T05:25:55.960Z,102687.69
2019-04-14T05:28:26.579Z,102690.30
2019-04-14T05:30:56.759Z,102694.19
2019-04-14T05:33:27.068Z,102690.25
2019-04-14T05:35:57.331Z,102689.31
2019-04-14T05:38:30.273Z,102694.16
2019-04-14T05:40:58.250Z,102695.43
2019-04-14T05:43:36.751Z,102695.84
2019-04-14T05:45:59.136Z,102698.88
2019-04-14T05:48:29.274Z,102695.78
2019-04-14T05:50:58.399Z,102700.03
2019-04-14T05:53:28.331Z,102697.73
2019-04-14T05:55:57.185Z,102696.00
2019-04-14T05:58:27.233Z,102699.80
2019-04-14T06:00:56.451Z,102696.41
2019-04-14T06:03:25.656Z,102698.58
2019-04-14T06:05:54.811Z,102705.98
2019-04-14T06:08:23.762Z,102702.41
2019-04-14T06:10:52.755Z,102697.47
2019-04-14T06:13:21.710Z,102695.20
2019-04-14T06:15:50.810Z,102693.89
2019-04-14T06:18:19.772Z,102695.42
2019-04-14T06:20:48.762Z,102687.73
2019-04-14T06:23:17.784Z,102693.77
2019-04-14T06:25:46.744Z,102700.64
2019-04-14T06:28:16.755Z,102703.67
2019-04-14T06:30:58.673Z,102706.64
2019-04-14T06:33:37.639Z,102709.58
2019-04-14T06:36:16.998Z,102706.95
2019-04-14T06:38:47.927Z,102704.58
2019-04-14T06:41:18.819Z,102701.01
2019-04-14T06:43:48.936Z,102704.39
2019-04-14T06:46:22.960Z,102714.10
2019-04-14T06:48:51.976Z,102709.28
2019-04-14T06:51:21.163Z,102714.12
2019-04-14T06:53:50.123Z,102716.60
2019-04-14T06:56:18.998Z,102715.44
2019-04-14T06:58:47.989Z,102719.91
2019-04-14T07:01:16.951Z,102715.39
2019-04-14T07:03:45.934Z,102719.74
2019-04-14T07:06:22.412Z,102716.19
2019-04-14T07:08:54.003Z,102716.19
2019-04-14T07:15:29.215Z,102709.30
2019-04-14T07:17:58.628Z,102711.16
2019-04-14T07:20:28.121Z,102710.63
2019-04-14T07:23:00.264Z,102709.13
2019-04-14T07:25:29.522Z,102711.80
2019-04-14T07:27:58.453Z,102711.70
2019-04-14T07:30:59.672Z,102716.41
2019-04-14T07:33:41.115Z,102720.80
2019-04-14T07:36:32.175Z,102719.20
2019-04-14T07:39:19.497Z,102720.11
2019-04-14T07:42:05.009Z,102732.89
2019-04-14T07:44:48.000Z,102725.88
2019-04-14T07:47:22.441Z,102726.84
2019-04-14T07:50:14.749Z,102731.55
2019-04-14T07:52:53.486Z,102729.90
2019-04-14T07:55:38.523Z,102730.52
2019-04-14T07:58:35.927Z,102731.99
2019-04-14T08:01:15.212Z,102729.47
2019-04-14T08:04:01.770Z,102730.30
2019-04-14T08:06:32.307Z,102729.72
2019-04-14T08:09:01.659Z,102731.83
2019-04-14T08:11:41.555Z,102732.77
2019-04-14T08:14:13.923Z,102733.28
2019-04-14T08:16:46.032Z,102739.06
2019-04-14T08:19:16.788Z,102737.72
2019-04-14T08:25:27.500Z,102730.59
2019-04-14T08:27:57.526Z,102727.19
2019-04-14T08:30:26.661Z,102731.24
2019-04-14T08:32:55.675Z,102730.12
2019-04-14T08:35:24.802Z,102720.91
2019-04-14T08:37:53.888Z,102727.27
2019-04-14T08:40:22.922Z,102728.37
2019-04-14T08:43:18.393Z,102728.44
2019-04-14T08:46:01.426Z,102737.60
2019-04-14T08:56:02.491Z,102726.37
2019-04-14T08:58:57.168Z,102741.47
2019-04-14T09:01:33.758Z,102729.09
2019-04-14T09:04:17.168Z,102735.88
2019-04-14T09:07:06.998Z,102730.91
2019-04-14T09:09:41.973Z,102738.96
2019-04-14T09:12:16.062Z,102741.76
2019-04-14T09:14:56.409Z,102741.47
2019-04-14T09:17:17.543Z,102737.00
2019-04-14T09:19:47.065Z,102738.20
2019-04-14T09:22:16.331Z,102736.47
2019-04-14T09:24:45.470Z,102737.60
2019-04-14T09:27:15.229Z,102747.59
2019-04-14T09:29:44.424Z,102747.98
2019-04-14T09:32:14.041Z,102748.52
2019-04-14T09:34:43.045Z,102752.44
2019-04-14T09:37:12.280Z,102755.09
2019-04-14T09:39:43.926Z,102752.98
2019-04-14T09:42:12.746Z,102752.63
2019-04-14T09:44:41.543Z,102755.64
2019-04-14T09:47:10.338Z,102751.06
2019-04-14T09:49:39.337Z,102750.23
2019-04-14T09:52:08.408Z,102758.05
2019-04-14T09:54:37.274Z,102752.20
2019-04-14T09:57:06.346Z,102758.58
2019-04-14T09:59:35.394Z,102758.27
2019-04-14T10:02:04.782Z,102758.92
2019-04-14T10:04:33.697Z,102756.77
2019-04-14T10:07:02.888Z,102763.31
2019-04-14T10:09:31.941Z,102762.20
2019-04-14T10:12:02.067Z,102762.82
2019-04-14T10:14:31.028Z,102761.41
2019-04-14T10:17:01.432Z,102761.67
2019-04-14T10:19:30.851Z,102760.41
2019-04-14T10:21:59.767Z,102761.14
2019-04-14T10:24:28.800Z,102764.92
2019-04-14T10:26:57.797Z,102773.83
2019-04-14T10:29:27.489Z,102777.12
2019-04-14T10:31:56.507Z,102766.81
2019-04-14T10:37:20.306Z,102776.98
2019-04-14T10:39:50.416Z,102776.11
2019-04-14T10:42:37.029Z,102775.37
2019-04-14T10:45:06.446Z,102775.52
2019-04-14T10:47:59.300Z,102770.30
2019-04-14T10:51:08.470Z,102776.02
2019-04-14T10:53:35.784Z,102779.67
2019-04-14T10:58:41.278Z,102777.64
2019-04-14T11:02:51.495Z,102778.02
2019-04-14T11:06:25.616Z,102771.02
2019-04-14T11:09:46.720Z,102770.41
2019-04-14T11:13:07.486Z,102770.13
2019-04-14T11:15:53.022Z,102769.53
2019-04-14T11:18:47.403Z,102761.97
2019-04-14T11:25:39.956Z,102777.56
2019-04-14T11:28:14.007Z,102777.70
2019-04-14T11:30:44.167Z,102763.91
2019-04-14T11:33:19.081Z,102768.72
2019-04-14T11:42:52.206Z,102774.43
2019-04-14T11:45:14.959Z,102778.16
2019-04-14T11:47:45.476Z,102776.18
2019-04-14T11:50:15.961Z,102773.83
2019-04-14T11:52:45.495Z,102776.69
2019-04-14T11:55:17.103Z,102778.39
2019-04-14T11:57:47.902Z,102778.02
2019-04-14T12:00:35.210Z,102781.92
2019-04-14T12:03:24.897Z,102782.81
2019-04-14T12:06:06.625Z,102782.09
2019-04-14T12:08:45.571Z,102786.34
2019-04-14T12:15:38.943Z,102785.42
2019-04-14T12:18:08.447Z,102789.98
2019-04-14T12:20:37.979Z,102789.28
2019-04-14T12:23:08.066Z,102784.51
2019-04-14T12:26:04.700Z,102783.27
2019-04-14T12:28:42.916Z,102786.19
2019-04-14T12:32:15.092Z,102783.13
2019-04-14T12:34:39.166Z,102785.19
2019-04-14T12:37:34.224Z,102786.21
2019-04-14T12:40:56.286Z,102788.31
2019-04-14T12:44:14.592Z,102782.14
2019-04-14T12:46:57.210Z,102789.53
2019-04-14T12:49:31.425Z,102783.19
2019-04-14T12:52:22.176Z,102783.38
2019-04-14T12:54:52.023Z,102785.66
2019-04-14T12:57:30.658Z,102784.45
2019-04-14T13:00:00.514Z,102786.25
2019-04-14T13:02:54.898Z,102786.98
2019-04-14T13:05:24.204Z,102781.95
2019-04-14T13:07:53.443Z,102777.61
2019-04-14T13:10:30.001Z,102779.73
2019-04-14T13:12:59.177Z,102728.63
2019-04-14T13:15:28.732Z,102781.83
2019-04-14T13:17:58.947Z,102781.95
2019-04-14T13:20:29.244Z,102781.95
2019-04-14T13:23:09.760Z,102782.97
2019-04-14T13:25:44.195Z,102781.16
2019-04-14T13:28:13.524Z,102776.34
2019-04-14T13:30:45.170Z,102777.06
2019-04-14T13:33:17.132Z,102781.01
2019-04-14T13:35:47.095Z,102775.75
2019-04-14T13:38:17.872Z,102773.60
2019-04-14T13:40:46.756Z,102781.61
2019-04-14T13:43:15.606Z,102777.21
2019-04-14T13:45:44.635Z,102773.23
2019-04-14T13:48:16.435Z,102778.49
2019-04-14T13:50:45.333Z,102777.89
2019-04-14T13:53:14.201Z,102779.91
2019-04-14T13:55:43.566Z,102781.39
2019-04-14T13:58:12.950Z,102782.47
2019-04-14T14:00:42.017Z,102788.79
2019-04-14T14:03:11.098Z,102779.28
2019-04-14T14:05:43.370Z,102778.19
2019-04-14T14:08:27.025Z,102776.23
2019-04-14T14:11:09.850Z,102782.84
2019-04-14T14:14:13.555Z,102783.34
2019-04-14T14:16:57.569Z,102775.86
2019-04-14T14:19:43.928Z,102770.13
2019-04-14T14:22:16.787Z,102773.89
2019-04-14T14:25:00.464Z,102767.49
2019-04-14T14:27:29.290Z,102771.80
2019-04-14T14:29:58.336Z,102765.64
2019-04-14T14:32:35.382Z,102770.82
2019-04-14T14:35:05.831Z,102770.78
2019-04-14T14:37:35.167Z,102768.97
2019-04-14T14:40:25.300Z,102768.44
2019-04-14T14:42:44.683Z,102763.86
2019-04-14T14:45:31.890Z,102766.27
2019-04-14T14:48:15.956Z,102763.17
2019-04-14T14:51:00.151Z,102765.18
2019-04-14T14:53:29.910Z,102761.96
2019-04-14T14:56:00.021Z,102761.64
2019-04-14T14:58:28.958Z,102770.48
2019-04-14T15:00:57.973Z,102764.95
2019-04-14T15:03:27.226Z,102773.58
2019-04-14T15:05:56.878Z,102772.14
2019-04-14T15:08:25.844Z,102771.27
2019-04-14T15:11:04.187Z,102770.37
2019-04-14T15:13:36.092Z,102775.76
2019-04-14T15:16:05.485Z,102771.69
2019-04-14T15:18:37.461Z,102762.23
2019-04-14T15:21:06.863Z,102767.03
2019-04-14T15:23:36.916Z,102765.02
2019-04-14T15:26:05.994Z,102766.26
2019-04-14T15:28:35.446Z,102759.80
2019-04-14T15:31:06.534Z,102763.20
2019-04-14T15:33:35.668Z,102762.19
2019-04-14T15:36:04.953Z,102764.03
2019-04-14T15:38:34.990Z,102763.55
2019-04-14T15:41:04.682Z,102761.61
2019-04-14T15:43:33.776Z,102766.22
2019-04-14T15:46:04.120Z,102767.94
2019-04-14T15:48:33.101Z,102765.64
2019-04-14T15:51:02.291Z,102765.55
2019-04-14T15:53:37.924Z,102773.05
2019-04-14T15:56:02.056Z,102777.08
2019-04-14T15:58:55.315Z,102774.03
2019-04-14T16:01:34.142Z,102771.73
2019-04-14T16:04:08.709Z,102777.23
2019-04-14T16:06:56.713Z,102778.11
2019-04-14T16:09:43.369Z,102774.36
2019-04-14T16:12:26.316Z,102777.08
2019-04-14T16:15:06.965Z,102775.76
2019-04-14T16:17:59.743Z,102777.00
2019-04-14T16:20:33.823Z,102774.23
2019-04-14T16:23:05.210Z,102770.49
2019-04-14T16:25:41.757Z,102772.75
2019-04-14T16:28:16.507Z,102776.70
2019-04-14T16:31:03.633Z,102769.05
2019-04-14T16:33:50.432Z,102772.76
2019-04-14T16:36:20.271Z,102779.95
2019-04-14T16:38:49.260Z,102773.64
2019-04-14T16:41:24.850Z,102775.89
2019-04-14T16:43:53.831Z,102778.53
2019-04-14T16:46:22.762Z,102782.92
2019-04-14T16:48:52.852Z,102782.48
2019-04-14T16:51:26.938Z,102782.48
2019-04-14T16:54:02.902Z,102782.28
2019-04-14T16:56:48.853Z,102784.12
2019-04-14T16:59:17.834Z,102771.02
2019-04-14T17:01:48.332Z,102785.86
2019-04-14T17:04:17.230Z,102784.95
2019-04-14T17:06:46.145Z,102783.16
2019-04-14T17:09:15.133Z,102786.57
2019-04-14T17:11:43.921Z,102791.19
2019-04-14T17:14:20.112Z,102790.33
2019-04-14T17:17:07.829Z,102793.86
2019-04-14T17:19:57.170Z,102794.80
2019-04-14T17:22:35.715Z,102800.29
2019-04-14T17:25:33.410Z,102796.59
2019-04-14T17:28:19.776Z,102796.36
2019-04-14T17:31:07.607Z,102797.16
2019-04-14T17:33:44.614Z,102792.62
2019-04-14T17:36:35.020Z,102801.23
2019-04-14T17:39:31.780Z,102802.93
2019-04-14T17:42:19.236Z,102806.66
2019-04-14T17:45:01.495Z,102807.56
2019-04-14T17:48:04.669Z,102809.19
2019-04-14T17:51:10.806Z,102802.27
2019-04-14T17:53:59.063Z,102819.14
2019-04-14T17:56:35.512Z,102813.85
2019-04-14T17:59:35.536Z,102814.55
2019-04-14T18:02:17.607Z,102823.41
2019-04-14T18:05:05.795Z,102829.23
2019-04-14T18:07:48.823Z,102833.18
2019-04-14T18:10:34.797Z,102838.92
2019-04-14T18:13:13.517Z,102838.47
2019-04-14T18:15:50.675Z,102838.44
2019-04-14T18:18:31.015Z,102849.52
2019-04-14T18:21:03.199Z,102839.94
2019-04-14T18:23:32.287Z,102849.05
2019-04-14T18:26:01.246Z,102852.12
2019-04-14T18:28:48.237Z,102859.50
2019-04-14T18:31:39.263Z,102863.17
2019-04-14T18:34:18.988Z,102863.59
2019-04-14T18:36:58.631Z,102867.17
2019-04-14T18:39:49.785Z,102860.13
2019-04-14T18:42:22.879Z,102863.23
2019-04-14T18:45:09.758Z,102861.77
2019-04-14T18:47:46.532Z,102857.11
2019-04-14T18:50:24.004Z,102866.64
2019-04-14T18:53:01.033Z,102866.58
2019-04-14T18:55:55.402Z,102868.76
2019-04-14T18:58:38.314Z,102870.05
2019-04-14T19:01:16.358Z,102877.95
2019-04-14T19:03:46.274Z,102881.09
2019-04-14T19:06:15.398Z,102877.06
2019-04-14T19:08:44.348Z,102883.13
2019-04-14T19:11:32.414Z,102891.94
2019-04-14T19:14:01.567Z,102895.46
2019-04-14T19:16:43.459Z,102894.98
2019-04-14T19:19:12.400Z,102898.84
2019-04-14T19:21:41.270Z,102896.19
2019-04-14T19:24:10.615Z,102904.09
2019-04-14T19:26:39.890Z,102902.30
2019-04-14T19:29:08.814Z,102907.56
2019-04-14T19:31:38.063Z,102907.44
2019-04-14T19:34:07.963Z,102908.37
2019-04-14T19:36:36.823Z,102908.31
2019-04-14T19:39:09.650Z,102911.42
2019-04-14T19:41:39.792Z,102917.54
2019-04-14T19:44:09.304Z,102921.45
2019-04-14T19:46:44.801Z,102912.88
2019-04-14T19:49:13.781Z,102917.66
2019-04-14T19:51:42.746Z,102918.05
2019-04-14T19:54:11.642Z,102919.34
2019-04-14T19:56:43.500Z,102922.89
2019-04-14T19:59:12.290Z,102918.08
2019-04-14T20:01:41.718Z,102927.28
2019-04-14T20:04:10.783Z,102924.09
2019-04-14T20:06:39.641Z,102924.23
2019-04-14T20:09:08.585Z,102925.52
2019-04-14T20:11:37.476Z,102922.83
2019-04-14T20:14:06.382Z,102924.12
2019-04-14T20:16:48.135Z,102925.88
2019-04-14T20:19:39.346Z,102926.86
2019-04-14T20:22:30.402Z,102930.23
2019-04-14T20:25:34.208Z,102934.22
2019-04-14T20:28:10.958Z,102932.48
2019-04-14T20:31:04.249Z,102916.26
2019-04-14T20:33:33.122Z,102925.97
2019-04-14T20:36:05.154Z,102928.48
2019-04-14T20:38:32.649Z,102931.11
2019-04-14T20:41:01.834Z,102929.38
2019-04-14T20:43:31.178Z,102930.21
2019-04-14T20:46:00.199Z,102928.00
2019-04-14T20:48:29.438Z,102931.50
2019-04-14T20:50:58.887Z,102935.80
2019-04-14T20:53:27.947Z,102928.90
2019-04-14T20:55:56.802Z,102911.84
2019-04-14T20:58:25.947Z,102932.42
2019-04-14T21:00:55.238Z,102928.95
2019-04-14T21:03:35.179Z,102929.47
2019-04-14T21:06:35.126Z,102938.10
2019-04-14T21:09:17.113Z,102929.80
2019-04-14T21:12:05.125Z,102932.36
2019-04-14T21:14:43.985Z,102925.40
2019-04-14T21:17:31.780Z,102930.21
2019-04-14T21:20:22.684Z,102934.63
2019-04-14T21:22:58.671Z,102933.71
2019-04-14T21:25:36.061Z,102926.36
2019-04-14T21:28:37.238Z,102935.61
2019-04-14T21:31:24.055Z,102931.67
2019-04-14T21:34:02.610Z,102938.66
2019-04-14T21:36:39.879Z,102936.39
2019-04-14T21:39:26.528Z,102938.25
2019-04-14T21:41:55.346Z,102941.77
2019-04-14T21:44:24.313Z,102947.14
2019-04-14T21:46:53.152Z,102947.47
2019-04-14T21:49:22.159Z,102941.71
2019-04-14T21:52:01.752Z,102951.06
2019-04-14T21:54:30.754Z,102957.09
2019-04-14T21:57:24.612Z,102955.87
2019-04-14T22:00:08.713Z,102958.50
2019-04-14T22:02:55.559Z,102961.52
2019-04-14T22:05:41.192Z,102967.39
2019-04-14T22:08:17.162Z,102964.59
2019-04-14T22:10:55.387Z,102970.45
2019-04-14T22:13:24.316Z,102970.03
2019-04-14T22:15:56.467Z,102975.41
2019-04-14T22:18:25.440Z,102976.17
2019-04-14T22:20:54.471Z,102981.92
2019-04-14T22:23:23.507Z,102986.70
2019-04-14T22:26:47.239Z,102980.31
2019-04-14T22:29:16.066Z,102985.48
2019-04-14T22:31:45.117Z,102979.84
2019-04-14T22:34:14.136Z,102986.36
2019-04-14T22:36:43.017Z,102992.98
2019-04-14T22:39:15.112Z,102987.75
2019-04-14T22:41:45.929Z,102989.53
2019-04-14T22:44:15.095Z,102989.09
2019-04-14T22:46:43.983Z,102997.06
2019-04-14T22:49:12.892Z,103000.98
2019-04-14T22:51:41.828Z,102999.63
2019-04-14T22:54:11.016Z,102999.67
2019-04-14T22:56:39.997Z,103010.66
2019-04-14T22:59:09.235Z,103005.53
2019-04-14T23:01:41.309Z,103013.28
2019-04-14T23:04:20.500Z,103014.14
2019-04-14T23:07:14.457Z,103010.65
2019-04-14T23:09:51.192Z,103011.65
2019-04-14T23:12:45.089Z,103019.47
2019-04-14T23:15:33.730Z,103010.80
2019-04-14T23:18:13.914Z,103018.67
2019-04-14T23:21:00.746Z,103021.72
2019-04-14T23:23:58.310Z,103022.20
2019-04-14T23:26:27.129Z,103024.84
2019-04-14T23:28:56.109Z,103027.00
2019-04-14T23:31:24.897Z,103023.22
2019-04-14T23:33:53.723Z,103025.36
2019-04-14T23:36:22.569Z,103024.11
2019-04-14T23:38:51.652Z,103025.70
2019-04-14T23:41:20.595Z,103028.05
2019-04-14T23:43:49.424Z,103026.75
2019-04-14T23:46:18.306Z,103027.98
2019-04-14T23:48:47.266Z,103026.28
2019-04-14T23:51:16.305Z,103029.38
2019-04-14T23:53:45.212Z,103026.81
2019-04-14T23:56:14.080Z,103027.16
2019-04-14T23:58:43.039Z,103027.16
